createdAt,value
2019-04-21T00:04:02.578Z,19.30
2019-04-21T00:08:27.530Z,17.87
2019-04-21T00:12:17.917Z,24.50
2019-04-21T00:16:07.091Z,25.40
2019-04-21T00:20:13.744Z,24.33
2019-04-21T00:24:26.532Z,22.07
2019-04-21T00:28:39.316Z,23.50
2019-04-21T00:32:26.910Z,22.47
2019-04-21T00:36:20.835Z,22.17
2019-04-21T00:40:34.567Z,21.97
2019-04-21T00:44:27.043Z,28.10
2019-04-21T00:48:36.442Z,28.17
2019-04-21T00:57:05.723Z,25.70
2019-04-21T01:01:02.310Z,22.27
2019-04-21T01:05:06.153Z,21.73
2019-04-21T01:09:03.335Z,21.70
2019-04-21T01:13:09.628Z,25.50
2019-04-21T01:17:11.135Z,29.80
2019-04-21T01:20:43.149Z,33.27
2019-04-21T01:24:46.529Z,28.40
2019-04-21T01:28:59.993Z,23.43
2019-04-21T01:33:07.700Z,23.23
2019-04-21T01:36:58.665Z,23.73
2019-04-21T01:41:06.982Z,25.40
2019-04-21T01:45:04.355Z,24.27
2019-04-21T01:48:59.316Z,26.23
2019-04-21T01:53:19.729Z,28.37
2019-04-21T01:57:12.954Z,27.40
2019-04-21T02:01:08.501Z,24.73
2019-04-21T02:05:25.854Z,23.20
2019-04-21T02:09:15.239Z,23.43
2019-04-21T02:13:11.776Z,23.93
2019-04-21T02:17:16.376Z,28.47
2019-04-21T02:21:22.094Z,32.37
2019-04-21T02:25:29.750Z,26.30
2019-04-21T02:29:34.407Z,27.33
2019-04-21T02:41:39.885Z,24.13
2019-04-21T02:45:43.412Z,22.90
2019-04-21T02:50:00.454Z,25.20
2019-04-21T02:54:07.360Z,26.13
2019-04-21T02:57:49.838Z,25.70
2019-04-21T03:01:56.518Z,24.27
2019-04-21T03:05:55.714Z,23.83
2019-04-21T03:09:49.724Z,24.03
2019-04-21T03:13:56.774Z,25.47
2019-04-21T03:17:56.928Z,25.73
2019-04-21T03:22:05.244Z,24.07
2019-04-21T03:26:10.257Z,25.73
2019-04-21T03:38:08.037Z,23.17
2019-04-21T03:42:26.865Z,24.43
2019-04-21T03:46:23.251Z,25.87
2019-04-21T03:54:13.782Z,24.27
2019-04-21T03:58:15.142Z,23.97
2019-04-21T04:18:23.411Z,23.70
2019-04-21T04:22:31.503Z,25.37
2019-04-21T04:26:14.182Z,23.90
2019-04-21T04:34:33.495Z,24.17
2019-04-21T04:38:30.087Z,24.43
2019-04-21T04:42:41.328Z,24.00
2019-04-21T04:46:18.341Z,24.37
2019-04-21T04:50:24.379Z,23.50
2019-04-21T04:54:32.210Z,23.93
2019-04-21T05:02:31.717Z,25.10
2019-04-21T05:14:25.122Z,26.97
2019-04-21T05:18:25.320Z,26.67
2019-04-21T05:22:21.695Z,26.63
2019-04-21T05:26:10.944Z,25.37
2019-04-21T05:30:28.659Z,25.37
2019-04-21T05:34:27.579Z,26.03
2019-04-21T05:38:22.927Z,25.47
2019-04-21T05:42:23.879Z,24.77
2019-04-21T05:46:32.598Z,26.93
2019-04-21T05:50:30.492Z,26.13
2019-04-21T05:58:40.587Z,25.80
2019-04-21T06:02:39.990Z,25.57
2019-04-21T06:06:43.701Z,26.00
2019-04-21T06:10:43.478Z,27.73
2019-04-21T06:14:48.428Z,25.83
2019-04-21T06:18:48.692Z,26.90
2019-04-21T06:22:50.797Z,26.87
2019-04-21T06:27:00.291Z,26.20
2019-04-21T06:31:05.652Z,25.97
2019-04-21T06:35:28.770Z,24.13
2019-04-21T06:39:40.426Z,25.27
2019-04-21T06:43:44.807Z,25.73
2019-04-21T06:47:42.340Z,25.00
2019-04-21T06:51:38.410Z,25.33
2019-04-21T06:55:37.737Z,24.43
2019-04-21T06:59:43.125Z,26.90
2019-04-21T07:04:05.778Z,29.43
2019-04-21T07:08:16.688Z,24.90
2019-04-21T07:12:07.516Z,23.57
2019-04-21T07:16:21.924Z,23.93
2019-04-21T07:20:17.306Z,22.97
2019-04-21T07:24:30.399Z,23.57
2019-04-21T07:28:25.966Z,22.60
2019-04-21T07:32:24.641Z,21.70
2019-04-21T07:36:35.475Z,20.60
2019-04-21T07:40:19.244Z,21.30
2019-04-21T07:44:21.032Z,18.37
2019-04-21T07:48:29.225Z,19.17
2019-04-21T07:52:35.135Z,18.13
2019-04-21T07:56:17.848Z,16.27
2019-04-21T08:00:40.185Z,19.13
2019-04-21T08:08:34.241Z,17.70
2019-04-21T08:12:29.540Z,16.73
2019-04-21T08:16:49.836Z,16.67
2019-04-21T08:20:50.720Z,14.30
2019-04-21T08:24:51.775Z,13.10
2019-04-21T08:28:56.478Z,13.63
2019-04-21T08:36:57.576Z,12.63
2019-04-21T08:41:08.656Z,11.97
2019-04-21T08:45:14.927Z,11.73
2019-04-21T08:49:09.385Z,11.83
2019-04-21T08:53:19.608Z,11.77
2019-04-21T08:57:24.540Z,12.90
2019-04-21T09:01:33.373Z,11.67
2019-04-21T09:05:25.848Z,11.70
2019-04-21T09:09:30.713Z,10.60
2019-04-21T09:13:37.133Z,9.97
2019-04-21T09:17:33.020Z,9.17
2019-04-21T09:21:37.493Z,9.23
2019-04-21T09:25:51.312Z,8.43
2019-04-21T09:29:44.738Z,8.60
2019-04-21T09:33:44.774Z,9.13
2019-04-21T09:37:47.319Z,9.47
2019-04-21T09:41:39.499Z,9.40
2019-04-21T09:45:40.737Z,8.93
2019-04-21T09:49:49.880Z,9.20
2019-04-21T09:54:10.683Z,9.40
2019-04-21T09:58:15.109Z,9.40
2019-04-21T10:02:11.604Z,9.63
2019-04-21T10:06:11.160Z,9.60
2019-04-21T10:10:12.801Z,9.10
2019-04-21T10:14:15.672Z,8.43
2019-04-21T10:18:22.077Z,8.23
2019-04-21T10:22:53.098Z,8.33
2019-04-21T10:26:51.740Z,8.23
2019-04-21T10:30:50.968Z,8.63
2019-04-21T10:34:55.105Z,9.03
2019-04-21T10:38:58.730Z,7.70
2019-04-21T10:42:58.354Z,8.37
2019-04-21T10:46:58.925Z,7.97
2019-04-21T10:51:05.245Z,8.43
2019-04-21T10:55:20.958Z,9.73
2019-04-21T10:59:12.103Z,8.57
2019-04-21T11:03:30.924Z,8.63
2019-04-21T11:08:04.849Z,8.43
2019-04-21T11:12:15.537Z,10.07
2019-04-21T11:16:17.131Z,8.27
2019-04-21T11:20:20.122Z,8.80
2019-04-21T11:24:25.066Z,8.40
2019-04-21T11:28:29.214Z,8.63
2019-04-21T11:32:32.792Z,8.27
2019-04-21T11:36:40.382Z,9.17
2019-04-21T11:40:43.905Z,8.23
2019-04-21T11:44:42.477Z,7.93
2019-04-21T11:48:50.317Z,9.57
2019-04-21T11:52:56.958Z,8.60
2019-04-21T11:57:07.983Z,8.37
2019-04-21T12:01:05.596Z,8.07
2019-04-21T12:05:35.313Z,8.30
2019-04-21T12:09:41.593Z,8.43
2019-04-21T12:13:40.377Z,8.70
2019-04-21T12:17:39.804Z,7.70
2019-04-21T12:21:53.294Z,8.90
2019-04-21T12:25:45.291Z,8.87
2019-04-21T12:29:46.183Z,8.80
2019-04-21T12:33:54.002Z,8.10
2019-04-21T12:37:53.172Z,7.63
2019-04-21T12:41:51.978Z,7.37
2019-04-21T12:45:58.107Z,7.63
2019-04-21T12:50:00.961Z,7.47
2019-04-21T12:53:59.589Z,8.23
2019-04-21T12:58:01.542Z,8.30
2019-04-21T13:02:01.065Z,7.73
2019-04-21T13:06:03.521Z,7.30
2019-04-21T13:10:04.371Z,7.80
2019-04-21T13:14:04.065Z,7.33
2019-04-21T13:18:02.818Z,8.13
2019-04-21T13:22:03.864Z,7.37
2019-04-21T13:26:04.361Z,7.63
2019-04-21T13:30:04.261Z,7.23
2019-04-21T13:34:04.078Z,7.50
2019-04-21T13:38:20.070Z,7.83
2019-04-21T13:42:24.086Z,7.57
2019-04-21T13:46:17.680Z,7.23
2019-04-21T13:50:23.682Z,6.53
2019-04-21T13:54:29.629Z,7.30
2019-04-21T13:58:36.194Z,7.70
2019-04-21T14:02:36.657Z,8.67
2019-04-21T14:06:36.359Z,7.20
2019-04-21T14:10:35.561Z,7.17
2019-04-21T14:14:40.260Z,7.83
2019-04-21T14:18:34.460Z,7.63
2019-04-21T14:22:35.983Z,6.93
2019-04-21T14:26:40.299Z,8.00
2019-04-21T14:30:46.025Z,7.53
2019-04-21T14:34:50.204Z,7.40
2019-04-21T14:38:52.464Z,7.93
2019-04-21T14:43:02.496Z,7.33
2019-04-21T14:51:31.587Z,8.10
2019-04-21T14:55:33.173Z,7.60
2019-04-21T14:59:33.127Z,6.90
2019-04-21T15:03:32.207Z,8.00
2019-04-21T15:11:49.918Z,7.53
2019-04-21T15:16:02.747Z,7.28
2019-04-21T15:20:10.506Z,6.97
2019-04-21T15:24:09.557Z,5.97
2019-04-21T15:28:09.735Z,6.12
2019-04-21T15:32:10.646Z,5.78
2019-04-21T15:36:09.239Z,6.67
2019-04-21T15:40:21.114Z,6.45
2019-04-21T15:44:09.875Z,5.95
2019-04-21T15:48:09.853Z,5.95
2019-04-21T15:52:09.772Z,5.83
2019-04-21T15:56:11.042Z,5.67
2019-04-21T16:00:28.744Z,6.08
2019-04-21T16:04:28.701Z,6.00
2019-04-21T16:08:37.399Z,5.45
2019-04-21T16:12:40.050Z,6.20
2019-04-21T16:16:41.285Z,6.20
2019-04-21T16:20:39.994Z,6.00
2019-04-21T16:25:06.601Z,5.62
2019-04-21T16:29:07.004Z,6.72
2019-04-21T16:33:06.078Z,5.60
2019-04-21T16:37:13.904Z,6.37
2019-04-21T16:41:20.316Z,6.03
2019-04-21T16:45:26.212Z,5.60
2019-04-21T16:49:25.447Z,5.92
2019-04-21T16:53:43.939Z,5.80
2019-04-21T16:57:41.913Z,5.40
2019-04-21T17:01:52.456Z,5.53
2019-04-21T17:05:54.386Z,6.23
2019-04-21T17:10:04.515Z,5.20
2019-04-21T17:14:05.678Z,4.50
2019-04-21T17:18:23.178Z,5.50
2019-04-21T17:22:10.212Z,5.20
2019-04-21T17:26:17.068Z,5.80
2019-04-21T17:30:20.447Z,5.60
2019-04-21T17:34:22.991Z,5.40
2019-04-21T17:38:34.156Z,5.70
2019-04-21T17:42:42.966Z,8.70
2019-04-21T17:46:40.758Z,15.63
2019-04-21T17:50:47.739Z,5.80
2019-04-21T17:55:07.571Z,6.00
2019-04-21T17:59:23.643Z,5.20
2019-04-21T18:03:25.152Z,5.37
2019-04-21T18:07:27.351Z,5.60
2019-04-21T18:11:22.772Z,5.60
2019-04-21T18:15:29.058Z,5.60
2019-04-21T18:19:13.056Z,6.30
2019-04-21T18:23:18.660Z,5.23
2019-04-21T18:27:17.603Z,5.17
2019-04-21T18:31:20.877Z,6.37
2019-04-21T18:35:35.765Z,6.33
2019-04-21T18:39:53.633Z,5.63
2019-04-21T18:44:15.557Z,5.90
2019-04-21T18:48:06.702Z,6.37
2019-04-21T18:52:20.801Z,5.90
2019-04-21T18:56:16.936Z,6.03
2019-04-21T19:00:28.846Z,5.97
2019-04-21T19:04:26.496Z,5.70
2019-04-21T19:08:46.565Z,6.20
2019-04-21T19:20:53.847Z,6.50
2019-04-21T19:24:59.810Z,7.13
2019-04-21T19:29:10.017Z,6.87
2019-04-21T19:32:58.011Z,6.50
2019-04-21T19:36:51.310Z,6.97
2019-04-21T19:41:18.804Z,7.00
2019-04-21T19:45:16.475Z,9.13
2019-04-21T19:49:36.785Z,8.57
2019-04-21T19:53:25.460Z,7.27
2019-04-21T19:57:16.710Z,9.07
2019-04-21T20:01:19.280Z,9.10
2019-04-21T20:05:32.739Z,8.33
2019-04-21T20:09:40.168Z,7.97
2019-04-21T20:13:52.740Z,8.27
2019-04-21T20:17:38.770Z,9.20
2019-04-21T20:21:22.941Z,9.60
2019-04-21T20:25:27.182Z,9.93
2019-04-21T20:34:07.866Z,12.57
2019-04-21T20:38:09.345Z,15.97
2019-04-21T20:42:03.848Z,15.20
2019-04-21T20:46:17.208Z,12.60
2019-04-21T20:50:11.701Z,12.07
2019-04-21T20:54:08.603Z,11.70
2019-04-21T20:58:15.487Z,12.33
2019-04-21T21:02:17.670Z,12.53
2019-04-21T21:06:20.485Z,12.00
2019-04-21T21:10:20.918Z,14.20
2019-04-21T21:14:23.471Z,12.77
2019-04-21T21:22:22.687Z,13.30
2019-04-21T21:26:45.766Z,14.23
2019-04-21T21:30:53.016Z,13.73
2019-04-21T21:34:57.207Z,13.83
2019-04-21T21:38:55.885Z,13.73
2019-04-21T21:42:43.484Z,15.33
2019-04-21T21:46:58.903Z,16.07
2019-04-21T21:50:57.638Z,15.07
2019-04-21T21:55:01.469Z,15.13
2019-04-21T21:59:10.594Z,15.73
2019-04-21T22:03:14.762Z,16.17
2019-04-21T22:07:12.423Z,17.03
2019-04-21T22:11:10.955Z,17.23
2019-04-21T22:15:17.353Z,17.80
2019-04-21T22:19:29.983Z,18.03
2019-04-21T22:23:24.121Z,17.40
2019-04-21T22:27:13.174Z,16.80
2019-04-21T22:31:20.712Z,17.57
2019-04-21T22:35:26.058Z,17.90
2019-04-21T22:39:39.084Z,18.40
2019-04-21T22:43:29.518Z,18.27
2019-04-21T22:47:31.641Z,16.73
2019-04-21T22:51:53.791Z,18.83
2019-04-21T22:55:57.249Z,19.50
2019-04-21T23:00:07.129Z,18.83
2019-04-21T23:04:08.925Z,18.57
2019-04-21T23:08:09.375Z,18.70
2019-04-21T23:12:23.146Z,18.07
2019-04-21T23:16:13.922Z,18.70
2019-04-21T23:20:53.640Z,18.30
2019-04-21T23:24:59.217Z,18.53
2019-04-21T23:28:57.276Z,16.47
2019-04-21T23:32:56.590Z,17.23
2019-04-21T23:36:54.355Z,18.13
2019-04-21T23:40:50.286Z,19.70
2019-04-21T23:44:49.096Z,18.53
2019-04-21T23:49:04.217Z,19.40
2019-04-21T23:52:49.836Z,16.93
2019-04-21T23:56:49.494Z,18.50
